Time;durP1;ratioP1;P1;durP2;ratioP2;P2;SDS_P1;SDS_P2;PMS_P1;PMS_P2;Temp;Humidity;BMP_temperature;BMP_pressure;BME280_temperature;BME280_humidity;BME280_pressure;Samples;Min_cycle;Max_cycle;Signal;HPM_P1;HPM_P2
2022/09/16 00:01:44;;;;;;;2.25;0.77;;;;;;;-144.48;100.00;62369.91;4972796;28;20047;-67
2022/09/16 00:04:09;;;;;;;3.75;1.20;;;;;;;-144.48;100.00;62369.91;4972624;28;20054;-66
2022/09/16 00:06:34;;;;;;;3.22;1.15;;;;;;;-144.48;100.00;62369.91;4970129;28;20030;-67
2022/09/16 00:09:00;;;;;;;7.57;1.45;;;;;;;-144.48;100.00;62369.91;4973698;28;20023;-66
2022/09/16 00:11:35;;;;;;;5.05;0.98;;;;;;;-144.48;100.00;62369.91;4972600;28;20415;-68
2022/09/16 00:14:01;;;;;;;3.08;0.95;;;;;;;-144.48;100.00;62369.91;4960928;28;20057;-67
2022/09/16 00:16:28;;;;;;;6.97;1.50;;;;;;;-144.48;100.00;62369.91;4971748;28;20027;-68
2022/09/16 00:18:55;;;;;;;5.97;1.00;;;;;;;-144.48;100.00;62369.91;4973176;28;20026;-65
2022/09/16 00:21:21;;;;;;;3.83;1.15;;;;;;;-144.48;100.00;62369.91;4973724;28;20370;-67
2022/09/16 00:23:46;;;;;;;5.68;1.27;;;;;;;-144.48;100.00;62369.91;4972474;28;20177;-66
2022/09/16 00:26:12;;;;;;;3.00;0.98;;;;;;;-144.48;100.00;62369.91;4971691;28;20018;-67
2022/09/16 00:28:39;;;;;;;5.65;1.00;;;;;;;-144.48;100.00;62369.91;4971857;28;20031;-69
2022/09/16 00:31:04;;;;;;;2.55;0.98;;;;;;;-144.48;100.00;62369.91;4972500;28;20026;-65
2022/09/16 00:33:30;;;;;;;9.13;1.10;;;;;;;-144.48;100.00;62369.91;4972889;28;20081;-67
2022/09/16 00:36:16;;;;;;;5.70;1.10;;;;;;;-144.48;100.00;62369.91;4970521;28;20428;-66
2022/09/16 00:38:42;;;;;;;2.28;0.93;;;;;;;-144.48;100.00;62369.91;4972301;28;20366;-67
2022/09/16 00:41:15;;;;;;;4.38;1.10;;;;;;;-144.48;100.00;62369.91;4972369;28;20018;-68
2022/09/16 00:43:57;;;;;;;5.57;1.05;;;;;;;-144.48;100.00;62369.91;4972646;28;20643;-67
2022/09/16 00:46:32;;;;;;;6.63;1.17;;;;;;;-144.48;100.00;62369.91;4964693;28;20034;-66
2022/09/16 00:49:03;;;;;;;4.70;1.10;;;;;;;-144.48;100.00;62369.91;4959818;28;20027;-66
2022/09/16 00:51:28;;;;;;;6.20;1.20;;;;;;;-144.48;100.00;62369.91;4979781;28;20033;-66
2022/09/16 00:54:01;;;;;;;7.65;1.30;;;;;;;-144.48;100.00;62369.91;4971857;28;20019;-68
2022/09/16 00:56:27;;;;;;;5.85;1.05;;;;;;;-144.48;100.00;62369.91;4971041;28;20515;-67
2022/09/16 00:59:04;;;;;;;3.80;1.20;;;;;;;-144.48;100.00;62369.91;4972194;28;20034;-66
2022/09/16 01:01:30;;;;;;;7.68;1.38;;;;;;;-144.48;100.00;62369.91;4972081;28;20026;-66
2022/09/16 01:04:02;;;;;;;3.30;0.85;;;;;;;-144.48;100.00;62369.91;4970785;28;20030;-68
2022/09/16 01:06:27;;;;;;;9.65;1.08;;;;;;;-144.48;100.00;62369.91;4975350;28;20101;-67
2022/09/16 01:08:55;;;;;;;3.90;1.20;;;;;;;-144.48;100.00;62369.91;4971870;28;20027;-67
2022/09/16 01:11:20;;;;;;;4.10;1.27;;;;;;;-144.48;100.00;62369.91;4971634;28;20022;-67
2022/09/16 01:13:47;;;;;;;8.60;2.95;;;;;;;-144.48;100.00;62369.91;4972075;28;20479;-67
2022/09/16 01:16:21;;;;;;;6.80;1.95;;;;;;;-144.48;100.00;62369.91;4971354;28;20442;-65
2022/09/16 01:19:05;;;;;;;4.93;1.00;;;;;;;-144.48;100.00;62369.91;4963666;28;20015;-64
2022/09/16 01:21:44;;;;;;;7.32;1.42;;;;;;;-144.48;100.00;62369.91;4960176;28;20480;-67
2022/09/16 01:24:57;;;;;;;3.85;1.23;;;;;;;-144.48;100.00;62369.91;4971409;28;20035;-66
2022/09/16 01:27:48;;;;;;;3.03;1.20;;;;;;;-144.48;100.00;62369.91;4921317;28;20652;-67
2022/09/16 01:30:20;;;;;;;2.67;1.30;;;;;;;-144.48;100.00;62369.91;4971973;28;20461;-67
2022/09/16 01:33:03;;;;;;;4.35;1.33;;;;;;;-144.48;100.00;62369.91;4971288;28;20029;-68
2022/09/16 01:35:47;;;;;;;3.95;1.17;;;;;;;-144.48;100.00;62369.91;4967086;28;20416;-67
2022/09/16 01:38:27;;;;;;;8.40;1.50;;;;;;;-144.48;100.00;62369.91;4962098;28;20562;-65
2022/09/16 01:41:22;;;;;;;4.75;1.67;;;;;;;-144.48;100.00;62369.91;4971158;28;20026;-67
2022/09/16 01:44:21;;;;;;;6.65;1.58;;;;;;;-144.48;100.00;62369.91;4965717;28;20030;-66
2022/09/16 01:47:05;;;;;;;9.02;2.00;;;;;;;-144.48;100.00;62369.91;4971201;28;20031;-67
2022/09/16 01:49:36;;;;;;;5.78;1.50;;;;;;;-144.48;100.00;62369.91;4971171;28;20026;-67
2022/09/16 01:52:09;;;;;;;12.25;2.15;;;;;;;-144.48;100.00;62369.91;4975955;28;20590;-68
2022/09/16 01:54:44;;;;;;;9.10;2.30;;;;;;;-144.48;100.00;62369.91;4971031;28;20023;-68
2022/09/16 01:57:16;;;;;;;4.88;1.50;;;;;;;-144.48;100.00;62369.91;4958850;28;20014;-66
2022/09/16 01:59:56;;;;;;;6.10;1.42;;;;;;;-144.48;100.00;62369.91;4972096;28;20059;-65
2022/09/16 02:02:41;;;;;;;8.63;1.67;;;;;;;-144.48;100.00;62369.91;4971294;28;20022;-66
2022/09/16 02:05:15;;;;;;;5.28;1.80;;;;;;;-144.48;100.00;62369.91;4960347;28;20093;-68
2022/09/16 02:07:46;;;;;;;12.18;1.95;;;;;;;-144.48;100.00;62369.91;4971480;28;20026;-68
2022/09/16 02:10:43;;;;;;;13.20;1.98;;;;;;;-144.48;100.00;62369.91;4972008;28;20061;-68
2022/09/16 02:13:29;;;;;;;5.43;1.60;;;;;;;-144.48;100.00;62369.91;4957271;28;20031;-66
2022/09/16 02:16:02;;;;;;;4.25;1.33;;;;;;;-144.48;100.00;62369.91;4970848;28;20037;-67
2022/09/16 02:18:35;;;;;;;6.10;1.58;;;;;;;-144.48;100.00;62369.91;4969924;28;20376;-68
2022/09/16 02:21:05;;;;;;;12.25;2.30;;;;;;;-144.48;100.00;62369.91;4970905;28;20535;-68
2022/09/16 02:23:38;;;;;;;11.95;1.60;;;;;;;-144.48;100.00;62369.91;4979043;28;20050;-68
2022/09/16 02:26:05;;;;;;;13.45;1.48;;;;;;;-144.48;100.00;62369.91;4970257;28;20023;-68
2022/09/16 02:28:38;;;;;;;3.17;1.13;;;;;;;-144.48;100.00;62369.91;4970339;28;20143;-67
2022/09/16 02:31:07;;;;;;;5.82;1.48;;;;;;;-144.48;100.00;62369.91;4970583;28;20022;-68
2022/09/16 02:33:39;;;;;;;4.63;1.10;;;;;;;-144.48;100.00;62369.91;4970867;28;20026;-68
2022/09/16 02:36:07;;;;;;;6.07;1.25;;;;;;;-144.48;100.00;62369.91;4957897;28;20027;-68
2022/09/16 02:38:42;;;;;;;2.67;1.00;;;;;;;-144.48;100.00;62369.91;4974921;28;20472;-67
2022/09/16 02:41:13;;;;;;;4.55;1.20;;;;;;;-144.48;100.00;62369.91;4970305;28;20057;-68
2022/09/16 02:43:40;;;;;;;5.72;1.70;;;;;;;-144.48;100.00;62369.91;4970469;28;20022;-69
2022/09/16 02:46:05;;;;;;;2.42;1.10;;;;;;;-144.48;100.00;62369.91;4970629;28;20088;-67
2022/09/16 02:48:47;;;;;;;8.52;1.10;;;;;;;-144.48;100.00;62369.91;4968262;28;20113;-67
2022/09/16 02:51:15;;;;;;;4.32;1.00;;;;;;;-144.48;100.00;62369.91;4969976;28;20018;-66
2022/09/16 02:53:59;;;;;;;3.60;0.95;;;;;;;-144.48;100.00;62369.91;4975046;28;20052;-67
2022/09/16 02:56:38;;;;;;;2.08;0.93;;;;;;;-144.48;100.00;62369.91;4973289;28;20038;-65
2022/09/16 02:59:04;;;;;;;;;;;;;;;-144.48;100.00;62369.91;4974577;28;20377;-67
2022/09/16 03:01:33;;;;;;;5.80;1.00;;;;;;;-144.48;100.00;62369.91;4974434;28;19989;-66
2022/09/16 03:03:58;;;;;;;3.72;1.30;;;;;;;-144.48;100.00;62369.91;4974105;28;20033;-64
2022/09/16 03:06:26;;;;;;;8.48;1.23;;;;;;;-144.48;100.00;62369.91;4973611;28;20035;-67
2022/09/16 03:08:54;;;;;;;9.75;2.10;;;;;;;-144.48;100.00;62369.91;4983071;28;20023;-67
2022/09/16 03:11:54;;;;;;;7.65;1.20;;;;;;;-144.48;100.00;62369.91;4973599;28;20069;-68
2022/09/16 03:14:31;;;;;;;7.05;1.45;;;;;;;-144.48;100.00;62369.91;4961006;28;20023;-68
2022/09/16 03:17:32;;;;;;;9.35;1.70;;;;;;;-144.48;100.00;62369.91;4973598;28;20046;-67
2022/09/16 03:20:04;;;;;;;6.35;1.20;;;;;;;-144.48;100.00;62369.91;4958735;28;20031;-65
2022/09/16 03:22:36;;;;;;;2.80;1.20;;;;;;;-144.48;100.00;62369.91;4979785;28;20029;-67
2022/09/16 03:25:11;;;;;;;9.85;1.55;;;;;;;-144.48;100.00;62369.91;4973466;28;20046;-66
2022/09/16 03:28:15;;;;;;;5.30;0.90;;;;;;;-144.48;100.00;62369.91;4971316;28;20050;-69
2022/09/16 03:31:00;;;;;;;2.28;0.60;;;;;;;-144.48;100.00;62369.91;4973686;28;20106;-67
2022/09/16 03:33:34;;;;;;;6.85;1.25;;;;;;;-144.48;100.00;62369.91;4973476;28;20046;-67
2022/09/16 03:36:04;;;;;;;3.35;1.00;;;;;;;-144.48;100.00;62369.91;4957447;28;20096;-66
2022/09/16 03:38:33;;;;;;;5.65;1.30;;;;;;;-144.48;100.00;62369.91;4975442;28;20114;-65
2022/09/16 03:41:00;;;;;;;3.28;0.93;;;;;;;-144.48;100.00;62369.91;4973375;28;20019;-67
2022/09/16 03:43:25;;;;;;;8.55;1.10;;;;;;;-144.48;100.00;62369.91;4972935;28;20101;-66
2022/09/16 03:45:50;;;;;;;9.48;1.30;;;;;;;-144.48;100.00;62369.91;4974088;28;20437;-67
2022/09/16 03:48:16;;;;;;;10.25;2.35;;;;;;;-144.48;100.00;62369.91;4972301;28;20033;-68
2022/09/16 03:50:41;;;;;;;3.90;1.20;;;;;;;-144.48;100.00;62369.91;4973113;28;20021;-69
2022/09/16 03:53:07;;;;;;;3.53;1.38;;;;;;;-144.48;100.00;62369.91;4983879;28;20018;-68
2022/09/16 03:55:32;;;;;;;5.93;1.08;;;;;;;-144.48;100.00;62369.91;4973025;28;20061;-66
2022/09/16 03:57:57;;;;;;;11.15;1.10;;;;;;;-144.48;100.00;62369.91;4972337;28;20410;-68
2022/09/16 04:00:23;;;;;;;2.65;1.05;;;;;;;-144.48;100.00;62369.91;4973566;28;20025;-67
2022/09/16 04:02:48;;;;;;;6.60;1.67;;;;;;;-144.48;100.00;62369.91;4971729;28;20106;-68
2022/09/16 04:05:13;;;;;;;6.80;1.00;;;;;;;-144.48;100.00;62369.91;4962433;28;20377;-67
2022/09/16 04:07:39;;;;;;;6.90;1.42;;;;;;;-144.48;100.00;62369.91;4979183;28;20149;-66
2022/09/16 04:10:06;;;;;;;3.38;1.08;;;;;;;-144.48;100.00;62369.91;4973110;28;20380;-69
2022/09/16 04:12:31;;;;;;;2.70;0.93;;;;;;;-144.48;100.00;62369.91;4972400;28;20098;-66
2022/09/16 04:14:57;;;;;;;2.50;1.00;;;;;;;-144.48;100.00;62369.91;4975458;28;20384;-67
2022/09/16 04:17:22;;;;;;;6.93;1.23;;;;;;;-144.48;100.00;62369.91;4972153;28;20026;-67
2022/09/16 04:19:50;;;;;;;17.00;1.75;;;;;;;-144.48;100.00;62369.91;4971532;28;20125;-65
2022/09/16 04:22:15;;;;;;;4.75;0.98;;;;;;;-144.48;100.00;62369.91;4975602;28;20117;-66
2022/09/16 04:24:40;;;;;;;7.63;1.27;;;;;;;-144.48;100.00;62369.91;4973007;28;20031;-66
2022/09/16 04:27:06;;;;;;;6.82;1.23;;;;;;;-144.48;100.00;62369.91;4971751;28;20555;-68
2022/09/16 04:29:31;;;;;;;3.30;0.90;;;;;;;-144.48;100.00;62369.91;4973283;28;20085;-65
2022/09/16 04:31:57;;;;;;;2.78;1.17;;;;;;;-144.48;100.00;62369.91;4972470;28;20019;-68
2022/09/16 04:34:23;;;;;;;8.07;1.58;;;;;;;-144.48;100.00;62369.91;4972433;28;20015;-71
2022/09/16 04:36:48;;;;;;;11.27;1.90;;;;;;;-144.48;100.00;62369.91;4980477;23;20054;-70
2022/09/16 04:39:13;;;;;;;7.28;1.67;;;;;;;-144.48;100.00;62369.91;4970900;28;20401;-71
2022/09/16 04:41:39;;;;;;;9.10;2.00;;;;;;;-144.48;100.00;62369.91;4971682;28;20033;-70
2022/09/16 04:44:04;;;;;;;5.72;1.48;;;;;;;-144.48;100.00;62369.91;4972123;28;20077;-71
2022/09/16 04:46:31;;;;;;;8.35;1.73;;;;;;;-144.48;100.00;62369.91;4970927;28;20073;-73
2022/09/16 04:48:58;;;;;;;6.32;1.98;;;;;;;-144.48;100.00;62369.91;4970473;28;20540;-70
2022/09/16 04:51:27;;;;;;;11.30;2.40;;;;;;;-144.48;100.00;62369.91;4964962;28;20019;-68
2022/09/16 04:53:54;;;;;;;8.85;2.42;;;;;;;-144.48;100.00;62369.91;4967939;28;20030;-68
2022/09/16 04:56:25;;;;;;;12.88;2.70;;;;;;;-144.48;100.00;62369.91;4971264;28;20045;-69
2022/09/16 04:58:53;;;;;;;7.95;2.38;;;;;;;-144.48;100.00;62369.91;4960105;28;20026;-68
2022/09/16 05:01:21;;;;;;;11.43;2.35;;;;;;;-144.48;100.00;62369.91;4971832;28;20072;-67
2022/09/16 05:03:50;;;;;;;5.68;1.90;;;;;;;-144.48;100.00;62369.91;4972533;28;20034;-69
2022/09/16 05:06:20;;;;;;;10.27;2.78;;;;;;;-144.48;100.00;62369.91;4966562;28;20065;-67
2022/09/16 05:08:47;;;;;;;9.55;3.03;;;;;;;-144.48;100.00;62369.91;4968107;28;20139;-70
2022/09/16 05:11:17;;;;;;;9.82;2.33;;;;;;;-144.48;100.00;62369.91;4963730;28;20032;-68
2022/09/16 05:13:43;;;;;;;9.50;2.22;;;;;;;-144.48;100.00;62369.91;4964729;28;20105;-68
2022/09/16 05:16:11;;;;;;;5.05;1.90;;;;;;;-144.48;100.00;62369.91;4969938;28;20110;-69
2022/09/16 05:18:39;;;;;;;7.97;2.38;;;;;;;-144.48;100.00;62369.91;4968548;28;20019;-67
2022/09/16 05:21:07;;;;;;;16.88;2.67;;;;;;;-144.48;100.00;62369.91;4975246;28;20034;-71
2022/09/16 05:23:33;;;;;;;7.20;2.05;;;;;;;-144.48;100.00;62369.91;4967872;28;20546;-71
2022/09/16 05:26:07;;;;;;;10.18;2.47;;;;;;;-144.48;100.00;62369.91;4968372;28;20022;-72
2022/09/16 05:28:34;;;;;;;5.75;1.98;;;;;;;-144.48;100.00;62369.91;4971020;28;20173;-71
2022/09/16 05:31:20;;;;;;;6.13;1.65;;;;;;;-144.48;100.00;62369.91;4969175;28;20031;-70
2022/09/16 05:33:56;;;;;;;7.05;1.73;;;;;;;-144.48;100.00;62369.91;4959413;28;20088;-70
2022/09/16 05:36:22;;;;;;;5.35;1.60;;;;;;;-144.48;100.00;62369.91;4973230;28;20038;-70
2022/09/16 05:38:47;;;;;;;6.38;1.50;;;;;;;-144.48;100.00;62369.91;4965215;28;20558;-70
2022/09/16 05:41:13;;;;;;;10.82;1.60;;;;;;;-144.48;100.00;62369.91;4969789;28;20033;-70
2022/09/16 05:43:38;;;;;;;6.30;1.85;;;;;;;-144.48;100.00;62369.91;4970986;28;20055;-69
2022/09/16 05:46:05;;;;;;;9.55;1.55;;;;;;;-144.48;100.00;62369.91;4970616;28;20030;-70
2022/09/16 05:48:32;;;;;;;3.05;1.30;;;;;;;-144.48;100.00;62369.91;4970112;28;20070;-71
2022/09/16 05:51:00;;;;;;;7.32;1.98;;;;;;;-144.48;100.00;62369.91;4972073;28;20054;-73
2022/09/16 05:53:27;;;;;;;8.53;2.10;;;;;;;-144.48;100.00;62369.91;4973576;28;20030;-73
2022/09/16 05:56:01;;;;;;;6.75;1.30;;;;;;;-144.48;100.00;62369.91;4970804;28;20260;-73
2022/09/16 05:58:28;;;;;;;7.95;1.50;;;;;;;-144.48;100.00;62369.91;4970933;28;20045;-74
2022/09/16 06:01:01;;;;;;;7.05;1.30;;;;;;;-144.48;100.00;62369.91;4972273;28;20495;-71
2022/09/16 06:03:27;;;;;;;8.60;1.40;;;;;;;-144.48;100.00;62369.91;4970074;28;20069;-73
2022/09/16 06:06:10;;;;;;;7.45;2.20;;;;;;;-144.48;100.00;62369.91;4970896;28;20084;-74
2022/09/16 06:08:36;;;;;;;3.80;1.38;;;;;;;-144.48;100.00;62369.91;4970344;28;20026;-73
2022/09/16 06:11:03;;;;;;;7.30;1.33;;;;;;;-144.48;100.00;62369.91;4970157;28;20082;-73
2022/09/16 06:13:29;;;;;;;3.42;1.23;;;;;;;-144.48;100.00;62369.91;4970725;28;20029;-72
2022/09/16 06:15:54;;;;;;;7.63;1.40;;;;;;;-144.48;100.00;62369.91;4971023;28;20424;-73
2022/09/16 06:18:21;;;;;;;6.38;1.38;;;;;;;-144.48;100.00;62369.91;4969023;28;20038;-72
2022/09/16 06:20:47;;;;;;;4.47;1.10;;;;;;;-144.48;100.00;62369.91;4969099;28;20034;-73
2022/09/16 06:23:13;;;;;;;8.80;2.25;;;;;;;-144.48;100.00;62369.91;4968487;28;20030;-73
2022/09/16 06:25:38;;;;;;;4.95;2.60;;;;;;;-144.48;100.00;62369.91;4969221;28;20026;-73
2022/09/16 06:28:04;;;;;;;2.75;1.27;;;;;;;-144.48;100.00;62369.91;4970641;28;20032;-73
2022/09/16 06:30:29;;;;;;;10.50;2.15;;;;;;;-144.48;100.00;62369.91;4971505;28;20094;-73
2022/09/16 06:32:55;;;;;;;9.40;1.70;;;;;;;-144.48;100.00;62369.91;4971413;28;20029;-74
2022/09/16 06:35:20;;;;;;;6.25;1.83;;;;;;;-144.48;100.00;62369.91;4969701;28;20026;-74
2022/09/16 06:37:46;;;;;;;3.42;1.40;;;;;;;-144.48;100.00;62369.91;4966282;28;20591;-73
2022/09/16 06:40:11;;;;;;;12.27;1.50;;;;;;;-144.48;100.00;62369.91;4962191;28;20089;-73
2022/09/16 06:42:36;;;;;;;3.22;1.02;;;;;;;-144.48;100.00;62369.91;4969256;28;20023;-72
2022/09/16 06:45:03;;;;;;;6.68;1.75;;;;;;;-144.48;100.00;62369.91;4970762;28;20125;-72
2022/09/16 06:47:32;;;;;;;6.38;1.20;;;;;;;-144.48;100.00;62369.91;4968002;28;20098;-73
2022/09/16 06:49:58;;;;;;;9.85;1.90;;;;;;;-144.48;100.00;62369.91;4970086;28;20054;-72
2022/09/16 06:52:24;;;;;;;6.00;2.20;;;;;;;-144.48;100.00;62369.91;4970836;28;20038;-72
2022/09/16 06:54:49;;;;;;;3.03;1.27;;;;;;;-144.48;100.00;62369.91;4970123;28;20667;-74
2022/09/16 06:57:17;;;;;;;4.25;0.88;;;;;;;-144.48;100.00;62369.91;4969105;28;20019;-72
2022/09/16 06:59:42;;;;;;;6.72;1.10;;;;;;;-144.48;100.00;62369.91;4970718;28;20026;-71
2022/09/16 07:02:09;;;;;;;13.15;1.90;;;;;;;-144.48;100.00;62369.91;4969783;28;20384;-72
2022/09/16 07:04:34;;;;;;;4.82;1.17;;;;;;;-144.48;100.00;62369.91;4969602;28;20022;-72
2022/09/16 07:07:00;;;;;;;2.17;0.88;;;;;;;-144.48;100.00;62369.91;4975434;28;20022;-73
2022/09/16 07:09:26;;;;;;;6.07;1.77;;;;;;;-144.48;100.00;62369.91;4970130;28;20027;-72
2022/09/16 07:11:51;;;;;;;4.93;1.10;;;;;;;-144.48;100.00;62369.91;4969983;28;20124;-71
2022/09/16 07:14:16;;;;;;;5.72;1.00;;;;;;;-144.48;100.00;62369.91;4969177;28;20022;-73
2022/09/16 07:16:42;;;;;;;2.55;0.90;;;;;;;-144.48;100.00;62369.91;4969381;28;20662;-72
2022/09/16 07:19:07;;;;;;;2.90;1.27;;;;;;;-144.48;100.00;62369.91;4966409;28;20042;-74
2022/09/16 07:21:32;;;;;;;2.55;1.00;;;;;;;-144.48;100.00;62369.91;4971189;28;20030;-72
2022/09/16 07:24:00;;;;;;;5.57;1.10;;;;;;;-144.48;100.00;62369.91;4969224;28;20034;-72
2022/09/16 07:26:32;;;;;;;7.38;1.65;;;;;;;-144.48;100.00;62369.91;4969076;28;20018;-72
2022/09/16 07:28:59;;;;;;;5.53;1.73;;;;;;;-144.48;100.00;62369.91;4970556;28;20046;-73
2022/09/16 07:31:26;;;;;;;6.18;1.17;;;;;;;-144.48;100.00;62369.91;4970014;28;20504;-72
2022/09/16 07:33:55;;;;;;;4.45;1.42;;;;;;;-144.48;100.00;62369.91;4969356;28;20022;-71
2022/09/16 07:36:24;;;;;;;12.48;1.45;;;;;;;-144.48;100.00;62369.91;4968056;28;20583;-72
2022/09/16 07:38:51;;;;;;;6.93;2.63;;;;;;;-144.48;100.00;62369.91;4965935;28;20034;-72
2022/09/16 07:41:19;;;;;;;6.10;1.85;;;;;;;-144.48;100.00;62369.91;4969629;28;20026;-73
2022/09/16 07:43:45;;;;;;;9.27;2.33;;;;;;;-144.48;100.00;62369.91;4973750;28;20025;-73
2022/09/16 07:46:12;;;;;;;3.25;1.23;;;;;;;-144.48;100.00;62369.91;4972975;28;20368;-72
2022/09/16 07:48:37;;;;;;;5.53;2.20;;;;;;;-144.48;100.00;62369.91;4972957;28;20050;-71
2022/09/16 07:51:12;;;;;;;3.80;1.10;;;;;;;-144.48;100.00;62369.91;4972724;28;20058;-71
2022/09/16 07:53:38;;;;;;;4.32;1.50;;;;;;;-144.48;100.00;62369.91;4980002;28;20019;-72
2022/09/16 07:56:10;;;;;;;10.38;2.08;;;;;;;-144.48;100.00;62369.91;4973109;28;20385;-73
2022/09/16 07:58:37;;;;;;;11.13;1.90;;;;;;;-144.48;100.00;62369.91;4963474;28;20121;-71
2022/09/16 08:01:04;;;;;;;6.55;1.67;;;;;;;-144.48;100.00;62369.91;4972589;28;20018;-72
2022/09/16 08:03:29;;;;;;;10.30;2.20;;;;;;;-144.48;100.00;62369.91;4969405;28;20079;-71
2022/09/16 08:06:06;;;;;;;6.30;1.60;;;;;;;-144.48;100.00;62369.91;4970725;28;20325;-71
2022/09/16 08:08:33;;;;;;;4.78;1.27;;;;;;;-144.48;100.00;62369.91;4973590;28;20418;-72
2022/09/16 08:10:59;;;;;;;3.85;1.20;;;;;;;-144.48;100.00;62369.91;4972433;28;20089;-72
2022/09/16 08:13:26;;;;;;;4.30;1.10;;;;;;;-144.48;100.00;62369.91;4973415;28;20023;-73
2022/09/16 08:15:53;;;;;;;7.03;1.90;;;;;;;-144.48;100.00;62369.91;4972906;28;20539;-72
2022/09/16 08:18:18;;;;;;;6.18;1.02;;;;;;;-144.48;100.00;62369.91;4972115;28;20080;-71
2022/09/16 08:20:43;;;;;;;3.58;1.30;;;;;;;-144.48;100.00;62369.91;4972319;28;20056;-72
2022/09/16 08:23:09;;;;;;;10.65;1.77;;;;;;;-144.48;100.00;62369.91;4975491;28;20275;-71
2022/09/16 08:25:35;;;;;;;6.60;2.45;;;;;;;-144.48;100.00;62369.91;4972235;28;20099;-73
2022/09/16 08:28:03;;;;;;;6.43;1.42;;;;;;;-144.48;100.00;62369.91;4971852;28;20092;-72
2022/09/16 08:30:28;;;;;;;2.58;0.93;;;;;;;-144.48;100.00;62369.91;4972076;28;20370;-71
2022/09/16 08:32:58;;;;;;;5.65;1.50;;;;;;;-144.48;100.00;62369.91;4971922;28;20030;-72
2022/09/16 08:35:24;;;;;;;3.78;1.27;;;;;;;-144.48;100.00;62369.91;4971869;28;20452;-71
2022/09/16 08:37:50;;;;;;;6.78;1.70;;;;;;;-144.48;100.00;62369.91;4978580;28;20524;-71
2022/09/16 08:40:20;;;;;;;3.55;1.40;;;;;;;-144.48;100.00;62369.91;4964117;28;20313;-72
2022/09/16 08:43:00;;;;;;;6.72;1.38;;;;;;;-144.48;100.00;62369.91;4971941;28;20442;-73
2022/09/16 08:45:41;;;;;;;7.40;2.17;;;;;;;-144.48;100.00;62369.91;4971271;28;20554;-72
2022/09/16 08:48:27;;;;;;;3.88;1.58;;;;;;;-144.48;100.00;62369.91;4970688;28;20061;-72
2022/09/16 08:50:53;;;;;;;2.95;1.23;;;;;;;-144.48;100.00;62369.91;4969698;28;20019;-72
2022/09/16 08:53:31;;;;;;;2.22;0.90;;;;;;;-144.48;100.00;62369.91;4974189;28;20029;-70
2022/09/16 08:55:57;;;;;;;3.10;1.00;;;;;;;-144.48;100.00;62369.91;4971605;28;20023;-72
2022/09/16 08:58:34;;;;;;;5.28;1.40;;;;;;;-144.48;100.00;62369.91;4971223;28;20030;-72
2022/09/16 09:01:03;;;;;;;5.40;1.25;;;;;;;-144.48;100.00;62369.91;4970160;28;20031;-73
2022/09/16 09:03:29;;;;;;;5.78;1.35;;;;;;;-144.48;100.00;62369.91;4971401;28;20114;-72
2022/09/16 09:05:57;;;;;;;2.70;0.80;;;;;;;-144.48;100.00;62369.91;4971001;28;20114;-72
2022/09/16 09:08:28;;;;;;;7.53;1.25;;;;;;;-144.48;100.00;62369.91;4973820;28;20033;-72
2022/09/16 09:11:02;;;;;;;4.43;1.20;;;;;;;-144.48;100.00;62369.91;4971328;28;20041;-72
2022/09/16 09:14:04;;;;;;;3.58;1.42;;;;;;;-144.48;100.00;62369.91;4969991;28;20019;-72
2022/09/16 09:16:57;;;;;;;5.15;0.98;;;;;;;-144.48;100.00;62369.91;4952013;28;20619;-72
2022/09/16 09:19:32;;;;;;;6.07;1.48;;;;;;;-144.48;100.00;62369.91;4966997;28;20420;-71
2022/09/16 09:22:28;;;;;;;7.65;1.60;;;;;;;-144.48;100.00;62369.91;4971484;28;20093;-72
2022/09/16 09:25:10;;;;;;;4.47;1.08;;;;;;;-144.48;100.00;62369.91;4966624;28;20045;-72
2022/09/16 09:27:47;;;;;;;7.15;1.48;;;;;;;-144.48;100.00;62369.91;4968810;28;20022;-71
2022/09/16 09:30:23;;;;;;;6.18;1.20;;;;;;;-144.48;100.00;62369.91;4970785;28;20057;-74
2022/09/16 09:33:07;;;;;;;2.90;0.95;;;;;;;-144.48;100.00;62369.91;4970873;28;20034;-71
2022/09/16 09:35:50;;;;;;;2.92;0.77;;;;;;;-144.48;100.00;62369.91;4968705;28;20584;-71
2022/09/16 09:38:30;;;;;;;3.83;0.82;;;;;;;-144.48;100.00;62369.91;4970713;28;20221;-71
2022/09/16 09:41:04;;;;;;;7.80;1.45;;;;;;;-144.48;100.00;62369.91;4965488;28;20158;-71
2022/09/16 09:43:42;;;;;;;1.45;0.70;;;;;;;-144.48;100.00;62369.91;4979008;28;20425;-70
2022/09/16 09:46:30;;;;;;;6.65;0.90;;;;;;;-144.48;100.00;62369.91;4970978;28;20030;-70
2022/09/16 09:49:10;;;;;;;3.70;0.75;;;;;;;-144.48;100.00;62369.91;4964743;28;20054;-70
2022/09/16 09:51:55;;;;;;;2.58;0.80;;;;;;;-144.48;100.00;62369.91;4970339;28;20033;-71
2022/09/16 09:54:51;;;;;;;5.07;0.93;;;;;;;-144.48;100.00;62369.91;4971427;28;20025;-71
2022/09/16 09:57:21;;;;;;;4.55;1.05;;;;;;;-144.48;100.00;62369.91;4955970;28;20358;-71
2022/09/16 09:59:49;;;;;;;3.90;1.58;;;;;;;-144.48;100.00;62369.91;4970070;28;20046;-70
2022/09/16 10:02:21;;;;;;;7.25;1.10;;;;;;;-144.48;100.00;62369.91;4970730;28;20106;-72
2022/09/16 10:04:46;;;;;;;3.15;1.00;;;;;;;-144.48;100.00;62369.91;4970338;28;20038;-70
2022/09/16 10:07:14;;;;;;;1.80;0.77;;;;;;;-144.48;100.00;62369.91;4969012;28;20019;-72
2022/09/16 10:09:52;;;;;;;4.00;1.10;;;;;;;-144.48;100.00;62369.91;4969603;28;20070;-71
2022/09/16 10:12:34;;;;;;;1.48;0.80;;;;;;;-144.48;100.00;62369.91;4970642;28;20085;-71
2022/09/16 10:15:00;;;;;;;3.70;0.73;;;;;;;-144.48;100.00;62369.91;4964337;28;20049;-71
2022/09/16 10:17:29;;;;;;;3.00;0.70;;;;;;;-144.48;100.00;62369.91;4970516;28;20117;-72
2022/09/16 10:20:20;;;;;;;1.33;0.80;;;;;;;-144.48;100.00;62369.91;4968993;28;20049;-71
2022/09/16 10:22:57;;;;;;;3.13;0.80;;;;;;;-144.48;100.00;62369.91;4972380;28;20022;-70
2022/09/16 10:25:25;;;;;;;6.20;1.00;;;;;;;-144.48;100.00;62369.91;4972974;28;20042;-72
2022/09/16 10:28:00;;;;;;;3.28;0.90;;;;;;;-144.48;100.00;62369.91;4970324;28;20026;-71
2022/09/16 10:30:50;;;;;;;7.43;1.02;;;;;;;-144.48;100.00;62369.91;4971184;28;20491;-69
2022/09/16 10:33:29;;;;;;;2.78;0.90;;;;;;;-144.48;100.00;62369.91;4969520;28;20034;-71
2022/09/16 10:36:20;;;;;;;5.45;1.13;;;;;;;-144.48;100.00;62369.91;4978678;23;20050;-67
2022/09/16 10:38:52;;;;;;;4.63;0.80;;;;;;;-144.48;100.00;62369.91;4975509;28;20076;-68
2022/09/16 10:41:24;;;;;;;4.70;0.85;;;;;;;-144.48;100.00;62369.91;4970279;28;20029;-68
2022/09/16 10:44:11;;;;;;;6.28;0.75;;;;;;;-144.48;100.00;62369.91;4969014;28;20030;-68
2022/09/16 10:46:36;;;;;;;4.47;0.80;;;;;;;-144.48;100.00;62369.91;4963402;28;20034;-66
2022/09/16 10:49:10;;;;;;;3.40;0.80;;;;;;;-144.48;100.00;62369.91;4970312;28;20019;-64
2022/09/16 10:51:36;;;;;;;2.70;0.80;;;;;;;-144.48;100.00;62369.91;4967930;28;20077;-66
2022/09/16 10:54:04;;;;;;;0.95;0.60;;;;;;;-144.48;100.00;62369.91;4969694;28;20019;-66
2022/09/16 10:56:45;;;;;;;2.72;0.80;;;;;;;-144.48;100.00;62369.91;4969071;28;20034;-66
2022/09/16 10:59:12;;;;;;;3.53;0.80;;;;;;;-144.48;100.00;62369.91;4969626;28;20059;-67
2022/09/16 11:02:02;;;;;;;6.35;0.82;;;;;;;-144.48;100.00;62369.91;4970622;28;20018;-67
2022/09/16 11:04:34;;;;;;;3.65;0.90;;;;;;;-144.48;100.00;62369.91;4969223;28;20148;-67
2022/09/16 11:07:08;;;;;;;4.10;0.77;;;;;;;-144.48;100.00;62369.91;4966523;28;20027;-68
2022/09/16 11:09:34;;;;;;;1.73;0.80;;;;;;;-144.48;100.00;62369.91;4970778;28;20102;-67
2022/09/16 11:12:15;;;;;;;1.50;0.60;;;;;;;-144.48;100.00;62369.91;4970653;28;20150;-67
2022/09/16 11:14:56;;;;;;;1.65;0.70;;;;;;;-144.48;100.00;62369.91;4974300;28;20090;-68
2022/09/16 11:17:40;;;;;;;7.90;1.27;;;;;;;-144.48;100.00;62369.91;4972300;28;20037;-68
2022/09/16 11:20:23;;;;;;;2.30;0.73;;;;;;;-144.48;100.00;62369.91;4973643;28;20089;-67
2022/09/16 11:23:07;;;;;;;5.28;1.38;;;;;;;-144.48;100.00;62369.91;4971386;28;20531;-68
2022/09/16 11:26:03;;;;;;;2.63;0.90;;;;;;;-144.48;100.00;62369.91;4973027;28;20041;-65
2022/09/16 11:29:24;;;;;;;3.08;0.82;;;;;;;-144.48;100.00;62369.91;4963618;28;20035;-67
2022/09/16 11:32:02;;;;;;;3.92;0.90;;;;;;;-144.48;100.00;62369.91;4960653;28;20145;-66